createdAt,value
2018-06-28T00:00:19.634Z,50.40
2018-06-28T00:01:51.207Z,46.30
2018-06-28T00:03:22.782Z,46.90
2018-06-28T00:04:54.351Z,48.80
2018-06-28T00:06:25.923Z,46.40
2018-06-28T00:07:57.796Z,44.30
2018-06-28T00:09:29.068Z,46.00
2018-06-28T00:11:00.640Z,42.20
2018-06-28T00:12:32.213Z,42.80
2018-06-28T00:14:03.785Z,39.60
2018-06-28T00:15:35.357Z,43.20
2018-06-28T00:17:06.929Z,43.40
2018-06-28T00:18:38.504Z,38.10
2018-06-28T00:20:10.073Z,37.90
2018-06-28T00:21:41.647Z,35.90
2018-06-28T00:23:13.217Z,41.60
2018-06-28T00:24:44.789Z,42.70
2018-06-28T00:26:16.464Z,38.10
2018-06-28T00:27:47.939Z,36.10
2018-06-28T00:29:19.507Z,34.90
2018-06-28T00:30:51.083Z,34.50
2018-06-28T00:32:22.751Z,35.60
2018-06-28T00:33:54.224Z,34.70
2018-06-28T00:35:25.796Z,34.10
2018-06-28T00:36:57.368Z,32.70
2018-06-28T00:38:28.940Z,34.30
2018-06-28T00:40:00.513Z,37.30
2018-06-28T00:41:32.085Z,37.50
2018-06-28T00:43:03.657Z,39.20
2018-06-28T00:44:35.380Z,36.90
2018-06-28T00:46:06.802Z,35.10
2018-06-28T00:47:38.375Z,36.80
2018-06-28T00:49:09.945Z,37.50
2018-06-28T00:50:41.518Z,36.50
2018-06-28T00:52:13.090Z,34.50
2018-06-28T00:53:44.664Z,34.30
2018-06-28T00:55:16.237Z,36.00
2018-06-28T00:56:47.806Z,30.90
2018-06-28T00:58:19.380Z,32.10
2018-06-28T00:59:50.951Z,35.60
2018-06-28T01:01:22.523Z,33.90
2018-06-28T01:02:54.447Z,35.20
2018-06-28T01:04:25.671Z,35.00
2018-06-28T01:05:57.240Z,33.90
2018-06-28T01:07:28.813Z,31.90
2018-06-28T01:09:00.535Z,31.90
2018-06-28T01:10:31.958Z,32.60
2018-06-28T01:12:03.530Z,31.50
2018-06-28T01:13:35.103Z,33.90
2018-06-28T01:15:06.675Z,32.40
2018-06-28T01:16:38.247Z,33.70
2018-06-28T01:18:09.820Z,32.80
2018-06-28T01:19:41.391Z,34.10
2018-06-28T01:21:13.064Z,35.70
2018-06-28T01:22:44.536Z,32.20
2018-06-28T01:24:16.111Z,33.70
2018-06-28T01:25:47.680Z,36.20
2018-06-28T01:27:19.253Z,35.10
2018-06-28T01:28:50.825Z,33.00
2018-06-28T01:30:22.397Z,33.90
2018-06-28T01:31:53.975Z,34.20
2018-06-28T01:33:25.544Z,34.90
2018-06-28T01:34:57.116Z,36.40
2018-06-28T01:36:28.686Z,39.90
2018-06-28T01:38:00.260Z,38.10
2018-06-28T01:39:31.931Z,34.80
2018-06-28T01:41:03.408Z,33.50
2018-06-28T01:42:34.975Z,38.90
2018-06-28T01:44:06.547Z,38.50
2018-06-28T01:45:38.126Z,40.50
2018-06-28T01:47:09.724Z,39.10
2018-06-28T01:48:41.262Z,40.90
2018-06-28T01:50:12.840Z,38.20
2018-06-28T01:51:44.407Z,39.70
2018-06-28T01:53:15.978Z,37.00
2018-06-28T01:54:47.552Z,36.50
2018-06-28T01:56:19.129Z,37.20
2018-06-28T01:57:50.794Z,35.10
2018-06-28T01:59:22.266Z,36.00
2018-06-28T02:00:53.839Z,35.10
2018-06-28T02:02:25.411Z,35.80
2018-06-28T02:03:57.082Z,35.00
2018-06-28T02:05:28.554Z,36.30
2018-06-28T02:07:00.126Z,37.40
2018-06-28T02:08:31.698Z,37.20
2018-06-28T02:10:03.420Z,38.50
2018-06-28T02:11:34.841Z,40.50
2018-06-28T02:13:06.417Z,38.70
2018-06-28T02:14:37.986Z,38.20
2018-06-28T02:16:09.657Z,37.10
2018-06-28T02:17:41.128Z,36.50
2018-06-28T02:19:12.700Z,37.20
2018-06-28T02:20:44.274Z,36.70
2018-06-28T02:22:15.843Z,36.90
2018-06-28T02:23:47.416Z,35.10
2018-06-28T02:25:18.988Z,33.70
2018-06-28T02:26:50.558Z,35.00
2018-06-28T02:28:22.129Z,34.60
2018-06-28T02:29:53.702Z,34.70
2018-06-28T02:31:25.273Z,36.20
2018-06-28T02:32:56.848Z,36.80
2018-06-28T02:34:28.616Z,38.40
2018-06-28T02:35:59.988Z,38.50
2018-06-28T02:37:31.559Z,38.70
2018-06-28T02:39:03.132Z,41.60
2018-06-28T02:40:34.854Z,39.80
2018-06-28T02:42:06.274Z,35.80
2018-06-28T02:43:37.845Z,34.10
2018-06-28T02:45:09.416Z,34.50
2018-06-28T02:46:40.994Z,34.80
2018-06-28T02:48:12.560Z,34.70
2018-06-28T02:49:44.131Z,34.40
2018-06-28T02:51:15.702Z,35.10
2018-06-28T02:52:47.374Z,33.70
2018-06-28T02:54:18.845Z,32.10
2018-06-28T02:55:50.416Z,32.60
2018-06-28T02:57:21.989Z,32.90
2018-06-28T02:58:53.559Z,32.30
2018-06-28T03:00:25.131Z,33.40
2018-06-28T03:01:56.702Z,34.90
2018-06-28T03:03:28.273Z,34.50
2018-06-28T03:04:59.946Z,36.00
2018-06-28T03:06:31.418Z,35.80
2018-06-28T03:08:02.988Z,34.80
2018-06-28T03:09:34.560Z,37.00
2018-06-28T03:11:06.435Z,33.30
2018-06-28T03:12:37.702Z,32.50
2018-06-28T03:14:09.274Z,36.00
2018-06-28T03:15:40.846Z,36.00
2018-06-28T03:17:12.416Z,34.70
2018-06-28T03:18:43.987Z,36.30
2018-06-28T03:20:15.561Z,33.60
2018-06-28T03:21:47.132Z,33.90
2018-06-28T03:23:18.700Z,33.60
2018-06-28T03:24:50.272Z,32.50
2018-06-28T03:26:21.843Z,34.50
2018-06-28T03:27:53.414Z,37.90
2018-06-28T03:29:25.086Z,38.80
2018-06-28T03:30:56.579Z,41.00
2018-06-28T03:32:28.127Z,42.80
2018-06-28T03:33:59.698Z,42.00
2018-06-28T03:35:31.370Z,39.20
2018-06-28T03:37:02.841Z,37.50
2018-06-28T03:38:34.412Z,41.80
2018-06-28T03:40:05.982Z,42.40
2018-06-28T03:41:37.703Z,40.50
2018-06-28T03:43:09.131Z,40.80
2018-06-28T03:44:40.696Z,45.20
2018-06-28T03:46:12.267Z,45.60
2018-06-28T03:47:43.938Z,47.20
2018-06-28T03:49:15.409Z,42.50
2018-06-28T03:50:46.980Z,42.20
2018-06-28T03:52:18.552Z,43.90
2018-06-28T03:53:50.122Z,42.40
2018-06-28T03:55:21.693Z,46.30
2018-06-28T03:56:53.264Z,46.50
2018-06-28T03:58:24.836Z,47.50
2018-06-28T03:59:56.406Z,54.40
2018-06-28T04:01:27.978Z,52.40
2018-06-28T04:02:59.547Z,50.80
2018-06-28T04:04:31.118Z,54.10
2018-06-28T04:06:02.939Z,51.80
2018-06-28T04:07:34.265Z,52.40
2018-06-28T04:09:05.830Z,49.30
2018-06-28T04:10:37.401Z,46.90
2018-06-28T04:12:08.971Z,51.40
2018-06-28T04:13:40.544Z,46.50
2018-06-28T04:15:12.115Z,50.50
2018-06-28T04:16:43.737Z,48.10
2018-06-28T04:18:15.255Z,44.90
2018-06-28T04:19:46.825Z,45.80
2018-06-28T04:21:18.395Z,49.50
2018-06-28T04:22:49.966Z,46.10
2018-06-28T04:24:21.636Z,47.70
2018-06-28T04:25:53.107Z,53.80
2018-06-28T04:27:24.701Z,52.30
2018-06-28T04:28:56.251Z,49.10
2018-06-28T04:30:27.818Z,48.00
2018-06-28T04:31:59.388Z,50.10
2018-06-28T04:33:30.959Z,47.00
2018-06-28T04:35:02.529Z,51.10
2018-06-28T04:36:34.099Z,54.80
2018-06-28T04:38:05.670Z,55.70
2018-06-28T04:39:37.240Z,51.80
2018-06-28T04:41:08.810Z,57.10
2018-06-28T04:42:40.481Z,54.60
2018-06-28T04:44:11.953Z,56.40
2018-06-28T04:45:43.521Z,56.80
2018-06-28T04:47:15.091Z,56.90
2018-06-28T04:48:46.661Z,58.30
2018-06-28T04:50:18.232Z,55.70
2018-06-28T04:51:49.802Z,55.40
2018-06-28T04:53:21.372Z,53.70
2018-06-28T04:54:52.943Z,54.10
2018-06-28T04:56:24.514Z,52.40
2018-06-28T04:57:56.083Z,54.00
2018-06-28T04:59:27.658Z,58.90
2018-06-28T05:00:59.325Z,60.30
2018-06-28T05:02:30.799Z,55.50
2018-06-28T05:04:02.367Z,54.30
2018-06-28T05:05:33.937Z,47.50
2018-06-28T05:07:05.652Z,53.90
2018-06-28T05:08:37.078Z,54.30
2018-06-28T05:10:08.648Z,58.60
2018-06-28T05:11:40.219Z,60.80
2018-06-28T05:13:11.789Z,58.00
2018-06-28T05:14:43.360Z,61.20
2018-06-28T05:16:14.930Z,64.70
2018-06-28T05:17:46.501Z,59.80
2018-06-28T05:19:18.171Z,56.10
2018-06-28T05:20:49.647Z,53.40
2018-06-28T05:22:21.211Z,49.30
2018-06-28T05:23:52.781Z,45.90
2018-06-28T05:25:24.355Z,45.10
2018-06-28T05:26:55.922Z,46.50
2018-06-28T05:28:27.492Z,43.40
2018-06-28T05:29:59.068Z,41.90
2018-06-28T05:31:30.633Z,41.50
2018-06-28T05:33:02.206Z,42.60
2018-06-28T05:34:33.838Z,40.30
2018-06-28T05:36:05.344Z,40.10
2018-06-28T05:37:37.165Z,39.50
2018-06-28T05:39:08.484Z,40.60
2018-06-28T05:40:40.055Z,40.30
2018-06-28T05:42:11.625Z,45.10
2018-06-28T05:43:43.195Z,44.00
2018-06-28T05:45:14.766Z,42.80
2018-06-28T05:46:46.336Z,44.50
2018-06-28T05:48:17.907Z,41.90
2018-06-28T05:49:49.481Z,39.60
2018-06-28T05:51:21.047Z,38.30
2018-06-28T05:52:52.640Z,36.80
2018-06-28T05:54:24.189Z,37.00
2018-06-28T05:55:55.858Z,37.00
2018-06-28T05:57:27.329Z,36.40
2018-06-28T05:58:58.899Z,39.10
2018-06-28T06:00:30.473Z,36.60
2018-06-28T06:02:02.041Z,34.70
2018-06-28T06:03:33.691Z,35.40
2018-06-28T06:05:05.181Z,36.40
2018-06-28T06:06:36.752Z,37.00
2018-06-28T06:08:08.422Z,36.40
2018-06-28T06:09:40.020Z,37.50
2018-06-28T06:11:11.463Z,36.20
2018-06-28T06:12:43.033Z,35.90
2018-06-28T06:14:14.705Z,33.90
2018-06-28T06:15:46.174Z,36.40
2018-06-28T06:17:17.748Z,37.40
2018-06-28T06:18:49.316Z,37.60
2018-06-28T06:20:20.946Z,38.70
2018-06-28T06:21:52.457Z,39.70
2018-06-28T06:23:24.026Z,39.70
2018-06-28T06:24:55.600Z,40.60
2018-06-28T06:26:27.167Z,41.40
2018-06-28T06:27:58.737Z,39.30
2018-06-28T06:29:30.475Z,41.20
2018-06-28T06:31:01.879Z,41.00
2018-06-28T06:32:33.549Z,40.40
2018-06-28T06:34:05.019Z,43.10
2018-06-28T06:35:36.591Z,41.40
2018-06-28T06:37:08.160Z,39.50
2018-06-28T06:38:39.835Z,42.50
2018-06-28T06:40:11.300Z,39.90
2018-06-28T06:41:42.870Z,42.50
2018-06-28T06:43:14.442Z,42.20
2018-06-28T06:44:46.012Z,43.50
2018-06-28T06:46:17.581Z,43.10
2018-06-28T06:47:49.150Z,44.50
2018-06-28T06:49:20.721Z,42.70
2018-06-28T06:50:52.392Z,43.40
2018-06-28T06:52:23.862Z,42.80
2018-06-28T06:53:55.432Z,42.30
2018-06-28T06:55:27.002Z,44.20
2018-06-28T06:56:58.573Z,41.00
2018-06-28T06:58:30.142Z,42.70
2018-06-28T07:00:01.714Z,43.00
2018-06-28T07:01:33.282Z,43.90
2018-06-28T07:03:04.852Z,44.70
2018-06-28T07:04:36.422Z,42.70
2018-06-28T07:06:07.993Z,45.50
2018-06-28T07:07:39.563Z,46.60
2018-06-28T07:09:11.383Z,46.30
2018-06-28T07:10:42.703Z,45.40
2018-06-28T07:12:14.274Z,44.50
2018-06-28T07:13:45.844Z,44.80
2018-06-28T07:15:17.414Z,43.60
2018-06-28T07:16:48.984Z,44.20
2018-06-28T07:18:20.685Z,45.10
2018-06-28T07:19:52.125Z,43.50
2018-06-28T07:21:23.696Z,48.60
2018-06-28T07:22:55.361Z,47.80
2018-06-28T07:24:26.836Z,46.40
2018-06-28T07:25:58.407Z,49.40
2018-06-28T07:27:30.077Z,45.40
2018-06-28T07:29:01.553Z,50.20
2018-06-28T07:30:33.119Z,50.40
2018-06-28T07:32:04.689Z,47.90
2018-06-28T07:33:36.261Z,46.40
2018-06-28T07:35:07.830Z,48.40
2018-06-28T07:36:39.401Z,50.20
2018-06-28T07:38:10.971Z,47.40
2018-06-28T07:39:42.641Z,50.70
2018-06-28T07:41:14.112Z,49.70
2018-06-28T07:42:45.682Z,48.90
2018-06-28T07:44:17.252Z,49.90
2018-06-28T07:45:48.927Z,50.00
2018-06-28T07:47:20.399Z,49.90
2018-06-28T07:48:51.963Z,50.00
2018-06-28T07:50:23.534Z,49.10
2018-06-28T07:51:55.254Z,48.10
2018-06-28T07:53:26.674Z,48.20
2018-06-28T07:54:58.246Z,48.40
2018-06-28T07:56:29.815Z,53.20
2018-06-28T07:58:01.385Z,48.50
2018-06-28T07:59:33.118Z,50.20
2018-06-28T08:01:04.526Z,48.70
2018-06-28T08:02:36.130Z,49.20
2018-06-28T08:04:07.771Z,48.60
2018-06-28T08:05:39.237Z,51.20
2018-06-28T08:07:10.808Z,51.70
2018-06-28T08:08:42.378Z,49.70
2018-06-28T08:10:14.052Z,49.60
2018-06-28T08:11:45.518Z,49.60
2018-06-28T08:13:17.091Z,50.50
2018-06-28T08:14:48.661Z,50.40
2018-06-28T08:16:20.229Z,50.80
2018-06-28T08:17:51.805Z,48.90
2018-06-28T08:19:23.369Z,48.80
2018-06-28T08:20:54.940Z,50.50
2018-06-28T08:22:26.610Z,52.30
2018-06-28T08:23:58.080Z,52.70
2018-06-28T08:25:29.650Z,49.90
2018-06-28T08:27:01.296Z,51.60
2018-06-28T08:28:32.792Z,51.80
2018-06-28T08:30:04.362Z,49.00
2018-06-28T08:31:35.932Z,48.10
2018-06-28T08:33:07.504Z,50.50
2018-06-28T08:34:39.072Z,51.30
2018-06-28T08:36:10.715Z,48.30
2018-06-28T08:37:42.213Z,51.10
2018-06-28T08:39:13.784Z,46.80
2018-06-28T08:40:45.454Z,50.70
2018-06-28T08:42:16.924Z,49.40
2018-06-28T08:43:48.497Z,47.60
2018-06-28T08:45:20.068Z,47.40
2018-06-28T08:46:51.785Z,49.20
2018-06-28T08:48:23.205Z,49.10
2018-06-28T08:49:54.776Z,47.80
2018-06-28T08:51:26.345Z,48.30
2018-06-28T08:52:57.917Z,47.70
2018-06-28T08:54:30.338Z,47.50
2018-06-28T08:56:01.058Z,44.80
2018-06-28T08:57:32.655Z,48.80
2018-06-28T08:59:04.297Z,45.30
2018-06-28T09:00:35.767Z,43.70
2018-06-28T09:02:07.337Z,46.80
2018-06-28T09:03:38.907Z,45.50
2018-06-28T09:05:10.479Z,46.60
2018-06-28T09:06:42.049Z,45.80
2018-06-28T09:08:13.644Z,44.80
2018-06-28T09:09:45.189Z,45.70
2018-06-28T09:11:16.759Z,46.40
2018-06-28T09:12:48.329Z,46.10
2018-06-28T09:14:19.899Z,45.40
2018-06-28T09:15:51.469Z,46.10
2018-06-28T09:17:23.140Z,45.50
2018-06-28T09:18:54.611Z,44.80
2018-06-28T09:20:26.180Z,45.40
2018-06-28T09:21:57.750Z,46.00
2018-06-28T09:23:29.471Z,44.30
2018-06-28T09:25:00.891Z,44.80
2018-06-28T09:26:32.462Z,45.30
2018-06-28T09:28:04.032Z,43.20
2018-06-28T09:29:35.602Z,41.60
2018-06-28T09:31:07.173Z,43.40
2018-06-28T09:32:38.743Z,42.40
2018-06-28T09:34:10.313Z,41.80
2018-06-28T09:35:42.041Z,41.80
2018-06-28T09:37:13.454Z,42.70
2018-06-28T09:38:45.025Z,43.90
2018-06-28T09:40:16.595Z,43.40
2018-06-28T09:41:48.167Z,43.90
2018-06-28T09:43:19.735Z,41.40
2018-06-28T09:44:51.306Z,44.20
2018-06-28T09:46:22.877Z,43.70
2018-06-28T09:47:54.447Z,43.60
2018-06-28T09:49:26.018Z,46.30
2018-06-28T09:50:57.592Z,43.90
2018-06-28T09:52:29.362Z,42.30
2018-06-28T09:54:00.830Z,45.30
2018-06-28T09:55:32.301Z,43.40
2018-06-28T09:57:03.876Z,44.40
2018-06-28T09:58:35.443Z,43.50
2018-06-28T10:01:38.587Z,44.10
2018-06-28T10:03:10.157Z,42.90
2018-06-28T10:04:41.764Z,44.30
2018-06-28T10:07:45.575Z,43.10
2018-06-28T10:09:16.439Z,42.10
2018-06-28T10:10:48.010Z,41.50
2018-06-28T10:12:19.785Z,41.50
2018-06-28T10:13:51.254Z,39.80
2018-06-28T10:15:23.257Z,41.40
2018-06-28T10:16:54.295Z,40.70
2018-06-28T10:18:25.868Z,39.00
2018-06-28T10:19:57.642Z,42.70
2018-06-28T10:21:29.214Z,40.20
2018-06-28T10:23:00.788Z,40.90
2018-06-28T10:24:32.747Z,40.80
2018-06-28T10:26:03.726Z,39.20
2018-06-28T10:27:35.309Z,38.50
2018-06-28T10:30:38.972Z,38.80
2018-06-28T10:32:10.113Z,39.00
2018-06-28T10:35:13.371Z,37.40
2018-06-28T10:38:16.503Z,38.20
2018-06-28T10:41:19.646Z,38.00
2018-06-28T10:42:51.015Z,38.20
2018-06-28T10:47:26.173Z,35.20
2018-06-28T10:48:58.239Z,34.50
2018-06-28T10:50:28.933Z,36.50
2018-06-28T10:53:32.018Z,37.30
2018-06-28T10:55:03.591Z,36.70
2018-06-28T10:56:35.368Z,35.20
2018-06-28T10:59:38.334Z,38.30
2018-06-28T11:01:09.878Z,37.70
2018-06-28T11:02:41.754Z,37.10
2018-06-28T11:04:13.132Z,36.90
2018-06-28T11:10:19.470Z,34.80
2018-06-28T11:11:50.888Z,34.90
2018-06-28T11:13:22.483Z,35.00
2018-06-28T11:16:25.637Z,36.00
2018-06-28T11:17:57.174Z,35.50
2018-06-28T11:19:28.746Z,35.70
2018-06-28T11:21:00.522Z,34.10
2018-06-28T11:22:32.427Z,35.70
2018-06-28T11:24:03.770Z,36.60
2018-06-28T11:25:35.038Z,35.20
2018-06-28T11:28:38.284Z,34.30
2018-06-28T11:30:09.872Z,34.40
2018-06-28T11:31:41.331Z,33.10
2018-06-28T11:33:13.439Z,33.00
2018-06-28T11:34:44.479Z,33.80
2018-06-28T11:37:47.649Z,50.20
2018-06-28T11:40:50.810Z,63.50
2018-06-28T11:42:22.381Z,60.50
2018-06-28T11:43:53.929Z,46.60
2018-06-28T11:45:26.042Z,75.20
2018-06-28T11:46:57.342Z,57.80
2018-06-28T11:48:28.661Z,41.20
2018-06-28T11:50:00.233Z,50.20
2018-06-28T11:51:32.184Z,63.20
2018-06-28T11:53:03.739Z,52.80
2018-06-28T11:56:06.751Z,38.70
2018-06-28T11:57:38.149Z,41.50
2018-06-28T11:59:09.895Z,39.80
2018-06-28T12:00:41.805Z,36.10
2018-06-28T12:02:12.846Z,31.80
2018-06-28T12:03:44.424Z,32.50
2018-06-28T12:05:16.423Z,33.80
2018-06-28T12:08:19.360Z,39.70
2018-06-28T12:09:51.041Z,42.50
2018-06-28T12:11:22.319Z,36.60
2018-06-28T12:12:53.893Z,39.50
2018-06-28T12:15:57.264Z,32.50
2018-06-28T12:17:28.628Z,34.90
2018-06-28T12:19:00.827Z,35.50
2018-06-28T12:20:31.782Z,42.00
2018-06-28T12:22:03.356Z,43.40
2018-06-28T12:23:35.613Z,43.30
2018-06-28T12:25:06.753Z,51.20
2018-06-28T12:26:38.088Z,51.70
2018-06-28T12:28:09.718Z,45.60
2018-06-28T12:29:41.771Z,42.10
2018-06-28T12:32:45.029Z,45.40
2018-06-28T12:34:16.279Z,39.90
2018-06-28T12:35:47.596Z,44.60
2018-06-28T12:37:19.656Z,38.20
2018-06-28T12:38:52.434Z,37.40
2018-06-28T12:40:22.278Z,36.40
2018-06-28T12:41:54.488Z,34.80
2018-06-28T12:44:57.060Z,42.90
2018-06-28T12:46:28.645Z,43.90
2018-06-28T12:48:01.074Z,43.30
2018-06-28T12:49:32.044Z,45.50
2018-06-28T12:51:03.519Z,40.70
2018-06-28T12:52:34.894Z,38.20
2018-06-28T12:54:06.673Z,28.60
2018-06-28T12:55:38.057Z,30.00
2018-06-28T12:57:09.930Z,29.80
2018-06-28T12:58:41.407Z,30.20
2018-06-28T13:01:44.464Z,33.30
2018-06-28T13:03:16.466Z,28.60
2018-06-28T13:04:47.714Z,30.90
2018-06-28T13:06:19.291Z,29.00
2018-06-28T13:07:50.670Z,27.70
2018-06-28T13:09:22.268Z,30.60
2018-06-28T13:12:25.400Z,27.80
2018-06-28T13:13:56.979Z,26.90
2018-06-28T13:15:29.091Z,26.30
2018-06-28T13:17:00.742Z,26.20
2018-06-28T13:18:31.840Z,25.10
2018-06-28T13:20:03.415Z,25.10
2018-06-28T13:23:06.456Z,23.70
2018-06-28T13:24:38.068Z,26.10
2018-06-28T13:26:09.606Z,25.10
2018-06-28T13:27:41.184Z,26.10
2018-06-28T13:29:13.066Z,24.80
2018-06-28T13:30:44.341Z,25.40
2018-06-28T13:32:16.481Z,23.70
2018-06-28T13:33:48.251Z,26.20
2018-06-28T13:35:19.382Z,24.00
2018-06-28T13:36:50.861Z,23.90
2018-06-28T13:38:22.340Z,25.70
2018-06-28T13:41:25.552Z,24.40
2018-06-28T13:46:00.161Z,25.40
2018-06-28T13:47:31.920Z,22.00
2018-06-28T13:49:03.321Z,24.30
2018-06-28T13:50:35.179Z,22.80
2018-06-28T13:53:38.619Z,21.00
2018-06-28T13:55:09.624Z,21.50
2018-06-28T13:59:44.354Z,21.00
2018-06-28T14:01:16.152Z,19.90
2018-06-28T14:05:51.013Z,19.90
2018-06-28T14:07:22.257Z,19.00
2018-06-28T14:10:25.623Z,21.50
2018-06-28T14:11:57.174Z,22.50
2018-06-28T14:13:28.584Z,20.90
2018-06-28T14:15:00.484Z,20.40
2018-06-28T14:16:31.848Z,21.60
2018-06-28T14:22:38.076Z,22.60
2018-06-28T14:24:09.656Z,21.50
2018-06-28T14:25:41.293Z,21.70
2018-06-28T14:27:12.820Z,20.60
2018-06-28T14:28:44.827Z,20.90
2018-06-28T14:30:16.192Z,19.90
2018-06-28T14:31:48.460Z,20.80
2018-06-28T14:33:19.239Z,20.20
2018-06-28T14:36:22.614Z,19.70
2018-06-28T14:37:53.921Z,20.80
2018-06-28T14:39:25.522Z,20.40
2018-06-28T14:42:28.843Z,20.50
2018-06-28T14:44:00.956Z,21.50
2018-06-28T14:45:31.804Z,20.00
2018-06-28T14:47:03.717Z,20.20
2018-06-28T14:48:35.377Z,19.90
2018-06-28T14:50:06.587Z,18.20
2018-06-28T14:51:38.134Z,18.30
2018-06-28T14:56:13.086Z,18.30
2018-06-28T14:57:44.487Z,17.50
2018-06-28T15:00:48.036Z,19.60
2018-06-28T15:02:19.520Z,20.40
2018-06-28T15:03:50.838Z,20.00
2018-06-28T15:05:22.412Z,20.10
2018-06-28T15:06:53.977Z,21.60
2018-06-28T15:08:26.094Z,20.00
2018-06-28T15:11:28.719Z,19.80
2018-06-28T15:13:00.304Z,18.80
2018-06-28T15:14:31.953Z,17.40
2018-06-28T15:17:35.122Z,17.60
2018-06-28T15:20:38.446Z,20.50
2018-06-28T15:22:09.920Z,18.30
2018-06-28T15:23:41.404Z,19.20
2018-06-28T15:25:12.992Z,19.50
2018-06-28T15:29:48.014Z,17.70
2018-06-28T15:31:19.347Z,16.50
2018-06-28T15:32:51.515Z,17.30
2018-06-28T15:34:22.792Z,18.00
2018-06-28T15:35:54.062Z,17.80
2018-06-28T15:38:57.262Z,17.20
2018-06-28T15:40:29.016Z,19.20
2018-06-28T15:42:00.397Z,20.90
2018-06-28T15:43:31.985Z,21.90
2018-06-28T15:45:04.104Z,19.70
2018-06-28T15:46:35.152Z,27.00
2018-06-28T15:48:07.137Z,20.10
2018-06-28T15:49:38.550Z,19.00
2018-06-28T15:51:10.212Z,23.20
2018-06-28T15:52:41.505Z,24.60
2018-06-28T15:55:45.229Z,13.40
2018-06-28T15:58:47.818Z,14.70
2018-06-28T16:00:20.346Z,16.40
2018-06-28T16:03:22.670Z,14.90
2018-06-28T16:04:54.456Z,15.20
2018-06-28T16:06:25.885Z,14.10
2018-06-28T16:07:57.571Z,15.00
2018-06-28T16:09:29.233Z,15.40
2018-06-28T16:11:00.876Z,16.80
2018-06-28T16:12:32.285Z,16.50
2018-06-28T16:14:03.853Z,15.80
2018-06-28T16:15:35.541Z,19.70
2018-06-28T16:17:07.082Z,18.50
2018-06-28T16:20:09.986Z,18.80
2018-06-28T16:21:41.870Z,17.80
2018-06-28T16:23:13.155Z,13.80
2018-06-28T16:26:16.523Z,19.90
2018-06-28T16:27:47.905Z,17.80
2018-06-28T16:29:19.497Z,16.00
2018-06-28T16:30:51.072Z,15.20
2018-06-28T16:32:23.301Z,14.80
2018-06-28T16:33:54.287Z,15.60
2018-06-28T16:35:25.876Z,16.00
2018-06-28T16:38:28.995Z,16.90
2018-06-28T16:40:00.678Z,16.90
2018-06-28T16:44:35.889Z,16.20
2018-06-28T16:46:06.991Z,13.80
2018-06-28T16:47:38.505Z,14.80
2018-06-28T16:49:10.388Z,13.50
2018-06-28T16:50:41.674Z,14.10
2018-06-28T16:52:13.303Z,13.60
2018-06-28T16:55:16.545Z,13.70
2018-06-28T16:56:48.055Z,13.70
2018-06-28T16:58:19.921Z,16.20
2018-06-28T17:01:23.291Z,15.80
2018-06-28T17:02:54.518Z,14.90
2018-06-28T17:04:26.024Z,15.60
2018-06-28T17:05:57.709Z,13.90
2018-06-28T17:07:29.297Z,12.30
2018-06-28T17:09:00.669Z,16.00
2018-06-28T17:10:32.253Z,14.40
2018-06-28T17:12:04.044Z,14.60
2018-06-28T17:13:35.621Z,13.90
2018-06-28T17:15:07.002Z,16.80
2018-06-28T17:16:38.771Z,14.00
2018-06-28T17:18:10.167Z,14.30
2018-06-28T17:19:41.750Z,14.80
2018-06-28T17:21:13.462Z,16.30
2018-06-28T17:22:45.167Z,21.50
2018-06-28T17:24:16.536Z,16.70
2018-06-28T17:25:48.898Z,15.80
2018-06-28T17:27:19.857Z,16.00
2018-06-28T17:28:51.434Z,16.20
2018-06-28T17:30:23.073Z,16.20
2018-06-28T17:31:55.167Z,16.50
2018-06-28T17:33:26.071Z,15.00
2018-06-28T17:34:57.727Z,14.10
2018-06-28T17:36:29.356Z,13.40
2018-06-28T17:38:00.776Z,14.00
2018-06-28T17:39:32.318Z,13.20
2018-06-28T17:41:03.940Z,13.50
2018-06-28T17:42:35.482Z,13.60
2018-06-28T17:44:08.246Z,14.50
2018-06-28T17:45:38.649Z,14.30
2018-06-28T17:47:10.261Z,14.00
2018-06-28T17:48:41.881Z,12.60
2018-06-28T17:51:44.985Z,12.30
2018-06-28T17:53:16.670Z,12.60
2018-06-28T17:54:49.045Z,13.50
2018-06-28T17:56:20.264Z,11.60
2018-06-28T17:57:51.852Z,11.00
2018-06-28T18:00:54.488Z,11.60
2018-06-28T18:02:26.069Z,11.10
2018-06-28T18:03:58.258Z,11.50
2018-06-28T18:05:29.287Z,10.80
2018-06-28T18:07:01.032Z,11.50
2018-06-28T18:08:32.705Z,10.90
2018-06-28T18:10:03.985Z,12.00
2018-06-28T18:11:35.568Z,11.60
2018-06-28T18:13:07.778Z,12.90
2018-06-28T18:14:38.929Z,22.70
2018-06-28T18:17:41.892Z,18.80
2018-06-28T18:20:45.668Z,13.10
2018-06-28T18:22:16.651Z,9.80
2018-06-28T18:23:48.437Z,10.30
2018-06-28T18:25:20.003Z,9.00
2018-06-28T18:26:51.495Z,10.10
2018-06-28T18:28:23.166Z,13.40
2018-06-28T18:29:54.849Z,12.40
2018-06-28T18:31:26.128Z,9.00
2018-06-28T18:32:57.911Z,11.00
2018-06-28T18:37:32.454Z,11.70
2018-06-28T18:39:04.141Z,11.40
2018-06-28T18:42:07.211Z,11.90
2018-06-28T18:43:38.784Z,12.20
2018-06-28T18:45:10.477Z,12.50
2018-06-28T18:46:41.942Z,10.00
2018-06-28T18:49:45.105Z,9.60
2018-06-28T18:51:16.950Z,9.30
2018-06-28T18:54:19.853Z,8.70
2018-06-28T18:55:51.654Z,9.70
2018-06-28T18:57:23.007Z,9.60
2018-06-28T18:58:54.890Z,9.80
2018-06-28T19:00:26.167Z,10.30
2018-06-28T19:01:57.857Z,9.20
2018-06-28T19:05:01.211Z,9.30
2018-06-28T19:06:32.485Z,9.40
2018-06-28T19:08:04.073Z,9.60
2018-06-28T19:09:35.643Z,11.50
2018-06-28T19:12:39.058Z,11.30
2018-06-28T19:14:10.973Z,11.50
2018-06-28T19:15:41.970Z,10.70
2018-06-28T19:21:49.114Z,9.30
2018-06-28T19:24:51.435Z,9.10
2018-06-28T19:26:23.038Z,9.70
2018-06-28T19:27:54.996Z,11.30
2018-06-28T19:30:57.751Z,13.10
2018-06-28T19:32:29.637Z,12.50
2018-06-28T19:37:04.065Z,11.60
2018-06-28T19:38:35.644Z,11.70
2018-06-28T19:40:07.257Z,12.20
2018-06-28T19:41:38.862Z,11.70
2018-06-28T19:43:12.317Z,12.10
2018-06-28T19:44:41.956Z,12.00
2018-06-28T19:46:13.616Z,12.20
2018-06-28T19:47:45.316Z,11.70
2018-06-28T19:49:16.993Z,11.30
2018-06-28T19:55:23.372Z,13.40
2018-06-28T19:56:54.713Z,12.80
2018-06-28T19:58:26.387Z,13.60
2018-06-28T19:59:57.740Z,13.80
2018-06-28T20:01:29.543Z,13.20
2018-06-28T20:03:00.916Z,14.20
2018-06-28T20:04:32.524Z,13.10
2018-06-28T20:06:04.058Z,12.40
2018-06-28T20:07:35.627Z,13.50
2018-06-28T20:09:07.508Z,13.20
2018-06-28T20:10:39.516Z,12.30
2018-06-28T20:12:10.360Z,12.80
2018-06-28T20:13:42.069Z,14.90
2018-06-28T20:15:13.517Z,14.30
2018-06-28T20:16:45.332Z,13.70
2018-06-28T20:18:16.670Z,14.70
2018-06-28T20:19:48.346Z,16.50
2018-06-28T20:21:19.823Z,14.90
2018-06-28T20:22:51.400Z,14.60
2018-06-28T20:24:23.235Z,16.10
2018-06-28T20:25:57.719Z,15.20
2018-06-28T20:28:57.717Z,15.30
2018-06-28T20:30:29.281Z,15.60
2018-06-28T20:35:04.010Z,16.80
2018-06-28T20:36:35.583Z,17.80
2018-06-28T20:39:38.736Z,17.20
2018-06-28T20:41:10.309Z,18.40
2018-06-28T20:42:41.984Z,19.50
2018-06-28T20:44:13.459Z,18.60
2018-06-28T20:45:45.237Z,19.70
2018-06-28T20:47:16.609Z,19.40
2018-06-28T20:50:20.290Z,20.10
2018-06-28T20:51:51.332Z,21.00
2018-06-28T20:53:22.912Z,20.20
2018-06-28T20:54:54.483Z,21.00
2018-06-28T20:56:26.063Z,20.60
2018-06-28T20:57:57.630Z,20.90
2018-06-28T20:59:29.204Z,22.10
2018-06-28T21:01:00.780Z,21.60
2018-06-28T21:02:32.456Z,21.40
2018-06-28T21:04:03.935Z,22.00
2018-06-28T21:05:35.501Z,23.60
2018-06-28T21:07:07.075Z,22.20
2018-06-28T21:08:38.648Z,22.80
2018-06-28T21:10:10.224Z,23.40
2018-06-28T21:11:41.799Z,23.50
2018-06-28T21:13:13.375Z,23.30
2018-06-28T21:14:44.943Z,23.80
2018-06-28T21:16:16.517Z,24.40
2018-06-28T21:17:48.090Z,24.90
2018-06-28T21:19:19.664Z,25.40
2018-06-28T21:20:51.337Z,26.30
2018-06-28T21:22:22.830Z,25.80
2018-06-28T21:23:54.384Z,26.70
2018-06-28T21:25:25.958Z,26.60
2018-06-28T21:26:57.531Z,27.50
2018-06-28T21:28:29.105Z,28.20
2018-06-28T21:30:00.677Z,27.50
2018-06-28T21:31:32.259Z,27.80
2018-06-28T21:33:03.842Z,27.40
2018-06-28T21:34:35.460Z,26.60
2018-06-28T21:36:06.971Z,26.80
2018-06-28T21:37:38.544Z,26.90
2018-06-28T21:39:10.217Z,28.00
2018-06-28T21:40:41.689Z,27.00
2018-06-28T21:42:13.263Z,28.90
2018-06-28T21:43:44.836Z,27.50
2018-06-28T21:45:16.409Z,27.00
2018-06-28T21:46:47.982Z,27.60
2018-06-28T21:48:19.614Z,28.20